createdAt,value
2022-08-17T00:01:51.994Z,2.80
2022-08-17T00:07:01.526Z,2.80
2022-08-17T00:12:43.445Z,3.00
2022-08-17T00:17:39.309Z,3.30
2022-08-17T00:22:46.442Z,3.23
2022-08-17T00:28:02.889Z,3.10
2022-08-17T00:33:17.073Z,3.20
2022-08-17T00:38:24.953Z,3.37
2022-08-17T00:43:42.813Z,3.40
2022-08-17T00:48:54.807Z,3.37
2022-08-17T00:54:07.332Z,3.00
2022-08-17T00:59:15.747Z,2.83
2022-08-17T01:04:25.867Z,3.07
2022-08-17T01:09:30.347Z,2.50
2022-08-17T01:14:34.364Z,2.80
2022-08-17T01:19:46.691Z,2.70
2022-08-17T01:24:55.913Z,2.90
2022-08-17T01:30:57.142Z,3.03
2022-08-17T01:35:37.087Z,3.10
2022-08-17T01:40:57.450Z,2.90
2022-08-17T01:46:07.229Z,3.20
2022-08-17T01:51:11.578Z,3.33
2022-08-17T01:56:20.251Z,3.00
2022-08-17T02:01:38.231Z,3.20
2022-08-17T02:12:47.459Z,4.57
2022-08-17T02:18:09.879Z,3.53
2022-08-17T02:23:16.390Z,3.57
2022-08-17T02:28:33.967Z,3.67
2022-08-17T02:34:03.487Z,3.60
2022-08-17T02:39:12.232Z,4.23
2022-08-17T02:44:40.477Z,3.73
2022-08-17T02:49:54.189Z,3.73
2022-08-17T02:55:01.961Z,4.00
2022-08-17T03:00:16.620Z,3.90
2022-08-17T03:05:29.068Z,3.80
2022-08-17T03:10:50.688Z,3.40
2022-08-17T03:15:59.207Z,3.93
2022-08-17T03:21:12.684Z,3.43
2022-08-17T03:26:23.061Z,3.67
2022-08-17T03:31:33.284Z,3.37
2022-08-17T03:36:41.275Z,3.20
2022-08-17T03:41:46.857Z,3.40
2022-08-17T03:47:12.286Z,3.33
2022-08-17T03:52:40.984Z,3.70
2022-08-17T03:57:54.558Z,3.87
2022-08-17T04:03:03.349Z,3.70
2022-08-17T04:08:37.849Z,4.37
2022-08-17T04:14:05.786Z,4.03
2022-08-17T04:19:15.283Z,4.40
2022-08-17T04:24:28.825Z,4.50
2022-08-17T04:29:54.207Z,4.80
2022-08-17T04:35:09.733Z,4.20
2022-08-17T04:40:33.666Z,4.37
2022-08-17T04:45:55.067Z,4.60
2022-08-17T04:51:07.881Z,4.47
2022-08-17T04:56:16.773Z,4.70
2022-08-17T05:01:24.077Z,4.70
2022-08-17T05:06:30.678Z,4.20
2022-08-17T05:11:34.365Z,4.50
2022-08-17T05:16:38.110Z,4.40
2022-08-17T05:21:43.308Z,5.20
2022-08-17T05:26:47.107Z,4.53
2022-08-17T05:31:54.627Z,4.40
2022-08-17T05:37:02.791Z,5.00
2022-08-17T05:42:06.843Z,4.40
2022-08-17T05:47:10.800Z,4.37
2022-08-17T05:52:24.494Z,4.17
2022-08-17T05:57:53.608Z,4.70
2022-08-17T06:03:26.636Z,5.20
2022-08-17T06:08:37.997Z,4.73
2022-08-17T06:13:59.882Z,5.30
2022-08-17T06:19:07.985Z,4.90
2022-08-17T06:24:27.817Z,4.13
2022-08-17T06:29:40.316Z,4.30
2022-08-17T06:34:46.481Z,3.90
2022-08-17T06:40:01.574Z,3.60
2022-08-17T06:45:11.819Z,4.17
2022-08-17T06:50:21.324Z,10.00
2022-08-17T06:55:35.829Z,10.17
2022-08-17T07:00:46.520Z,6.20
2022-08-17T07:05:53.374Z,4.63
2022-08-17T07:11:04.545Z,4.20
2022-08-17T07:16:19.731Z,3.90
2022-08-17T07:21:38.877Z,4.47
2022-08-17T07:26:44.084Z,4.10
2022-08-17T07:31:47.968Z,4.07
2022-08-17T07:37:05.582Z,4.13
2022-08-17T07:42:12.351Z,3.97
2022-08-17T07:47:35.524Z,4.00
2022-08-17T07:52:50.691Z,4.00
2022-08-17T07:58:00.345Z,3.83
2022-08-17T08:03:13.921Z,3.53
2022-08-17T08:08:26.269Z,4.10
2022-08-17T08:13:32.990Z,3.63
2022-08-17T08:18:54.862Z,3.40
2022-08-17T08:24:21.080Z,3.80
2022-08-17T08:29:41.515Z,3.53
2022-08-17T08:35:01.923Z,3.87
2022-08-17T08:40:21.775Z,3.40
2022-08-17T08:45:34.506Z,3.70
2022-08-17T08:50:47.941Z,3.53
2022-08-17T08:55:56.801Z,3.50
2022-08-17T09:01:04.313Z,4.40
2022-08-17T09:06:37.462Z,3.42
2022-08-17T09:12:02.392Z,3.58
2022-08-17T09:17:14.099Z,3.63
2022-08-17T09:22:31.904Z,3.60
2022-08-17T09:27:46.695Z,3.20
2022-08-17T09:32:55.727Z,3.83
2022-08-17T09:38:07.197Z,3.25
2022-08-17T09:43:20.772Z,3.20
2022-08-17T09:48:30.283Z,3.78
2022-08-17T09:53:34.078Z,3.65
2022-08-17T09:58:56.621Z,3.30
2022-08-17T10:04:20.421Z,3.33
2022-08-17T10:09:43.915Z,3.40
2022-08-17T10:15:08.031Z,3.40
2022-08-17T10:20:18.360Z,3.30
2022-08-17T10:25:54.007Z,3.17
2022-08-17T10:31:30.977Z,3.40
2022-08-17T10:36:38.344Z,3.35
2022-08-17T10:41:45.838Z,3.90
2022-08-17T10:47:04.594Z,3.22
2022-08-17T10:52:52.022Z,3.72
2022-08-17T10:58:21.310Z,3.42
2022-08-17T11:03:26.808Z,3.53
2022-08-17T11:09:14.629Z,3.58
2022-08-17T11:14:33.905Z,3.33
2022-08-17T11:20:10.776Z,3.58
2022-08-17T11:25:18.726Z,3.65
2022-08-17T11:30:47.102Z,3.35
2022-08-17T11:36:01.752Z,3.35
2022-08-17T11:41:20.671Z,3.30
2022-08-17T11:46:54.179Z,3.28
2022-08-17T11:52:16.373Z,3.40
2022-08-17T11:58:01.891Z,3.00
2022-08-17T12:03:37.203Z,3.30
2022-08-17T12:08:43.697Z,3.40
2022-08-17T12:13:51.180Z,3.67
2022-08-17T12:18:58.818Z,3.20
2022-08-17T12:24:11.501Z,3.08
2022-08-17T12:29:38.612Z,3.30
2022-08-17T12:34:44.557Z,3.00
2022-08-17T12:39:58.159Z,2.85
2022-08-17T12:45:03.241Z,2.90
2022-08-17T12:50:29.381Z,3.35
2022-08-17T12:55:39.095Z,3.20
2022-08-17T13:00:51.034Z,3.10
2022-08-17T13:06:00.082Z,3.10
2022-08-17T13:11:06.475Z,3.03
2022-08-17T13:16:18.540Z,3.00
2022-08-17T13:21:28.347Z,2.92
2022-08-17T13:26:36.053Z,2.75
2022-08-17T13:31:51.966Z,2.85
2022-08-17T13:37:27.147Z,2.80
2022-08-17T13:42:34.229Z,2.80
2022-08-17T13:48:11.117Z,2.40
2022-08-17T13:53:20.686Z,2.75
2022-08-17T13:58:27.830Z,2.55
2022-08-17T14:03:32.789Z,3.00
2022-08-17T14:08:38.563Z,2.45
2022-08-17T14:13:42.041Z,2.30
2022-08-17T14:18:55.909Z,2.25
2022-08-17T14:26:34.461Z,2.60
2022-08-17T14:30:25.861Z,2.15
2022-08-17T14:35:32.014Z,2.88
2022-08-17T14:40:37.150Z,2.40
2022-08-17T14:45:41.483Z,2.30
2022-08-17T14:50:46.787Z,2.50
2022-08-17T14:55:51.761Z,2.80
2022-08-17T15:00:55.409Z,2.33
2022-08-17T15:06:00.484Z,2.65
2022-08-17T15:11:04.192Z,2.65
2022-08-17T15:16:09.051Z,2.60
2022-08-17T15:21:15.209Z,2.78
2022-08-17T15:26:24.131Z,2.50
2022-08-17T15:31:32.378Z,2.80
2022-08-17T15:36:37.874Z,2.60
2022-08-17T15:41:45.159Z,2.40
2022-08-17T15:46:50.103Z,2.53
2022-08-17T15:51:55.700Z,3.17
2022-08-17T15:57:05.364Z,3.00
2022-08-17T16:03:13.528Z,2.63
2022-08-17T16:07:51.471Z,2.92
2022-08-17T16:12:55.852Z,3.00
2022-08-17T16:17:59.921Z,2.88
2022-08-17T16:23:08.007Z,2.70
2022-08-17T16:28:13.489Z,2.95
2022-08-17T16:33:21.338Z,2.80
2022-08-17T16:38:27.152Z,3.25
2022-08-17T16:43:31.557Z,2.53
2022-08-17T16:48:35.264Z,2.92
2022-08-17T16:53:40.417Z,2.90
2022-08-17T16:58:49.008Z,3.03
2022-08-17T17:03:58.335Z,2.97
2022-08-17T17:09:10.429Z,3.10
2022-08-17T17:14:18.682Z,3.15
2022-08-17T17:19:37.242Z,2.78
2022-08-17T17:25:09.635Z,3.13
2022-08-17T17:30:16.858Z,3.38
2022-08-17T17:35:25.880Z,3.20
2022-08-17T17:40:39.690Z,3.70
2022-08-17T17:45:47.338Z,3.65
2022-08-17T17:50:58.094Z,3.58
2022-08-17T17:56:40.377Z,3.13
2022-08-17T18:01:48.134Z,3.40
2022-08-17T18:07:04.054Z,4.28
2022-08-17T18:12:17.129Z,4.07
2022-08-17T18:17:20.869Z,3.60
2022-08-17T18:22:25.970Z,3.67
2022-08-17T18:27:35.439Z,3.70
2022-08-17T18:32:41.692Z,3.65
2022-08-17T18:37:48.513Z,4.57
2022-08-17T18:43:04.268Z,3.50
2022-08-17T18:48:18.845Z,3.63
2022-08-17T18:53:36.294Z,3.35
2022-08-17T18:58:43.320Z,3.50
2022-08-17T19:03:48.341Z,3.38
2022-08-17T19:08:53.843Z,3.72
2022-08-17T19:14:02.345Z,3.70
2022-08-17T19:19:14.518Z,3.22
2022-08-17T19:24:25.090Z,3.60
2022-08-17T19:29:38.699Z,3.47
2022-08-17T19:34:44.988Z,3.90
2022-08-17T19:39:57.091Z,3.70
2022-08-17T19:45:11.602Z,4.00
2022-08-17T19:50:25.208Z,4.50
2022-08-17T19:55:44.179Z,5.00
2022-08-17T20:00:53.295Z,4.03
2022-08-17T20:06:12.705Z,4.77
2022-08-17T20:11:25.346Z,4.50
2022-08-17T20:16:30.996Z,4.47
2022-08-17T20:21:42.312Z,4.30
2022-08-17T20:26:58.362Z,4.37
2022-08-17T20:32:20.387Z,3.73
2022-08-17T20:37:31.924Z,3.53
2022-08-17T20:42:36.604Z,4.10
2022-08-17T20:48:07.305Z,4.37
2022-08-17T20:53:15.114Z,4.50
2022-08-17T20:58:38.521Z,4.40
2022-08-17T21:03:50.812Z,4.37
2022-08-17T21:08:59.546Z,4.13
2022-08-17T21:14:14.099Z,4.03
2022-08-17T21:19:44.412Z,3.70
2022-08-17T21:25:09.732Z,3.80
2022-08-17T21:30:25.248Z,3.87
2022-08-17T21:35:48.034Z,4.20
2022-08-17T21:40:54.294Z,3.67
2022-08-17T21:46:02.563Z,4.37
2022-08-17T21:51:18.427Z,4.40
2022-08-17T21:56:25.534Z,4.30
2022-08-17T22:01:31.490Z,4.23
2022-08-17T22:06:39.909Z,4.27
2022-08-17T22:25:37.517Z,3.97
2022-08-17T22:38:11.210Z,3.80
2022-08-17T22:43:58.406Z,4.30
2022-08-17T22:49:36.176Z,3.50
2022-08-17T22:54:58.743Z,3.70
2022-08-17T23:05:23.098Z,4.03
2022-08-17T23:10:29.501Z,3.93
2022-08-17T23:15:34.296Z,3.50
2022-08-17T23:20:40.583Z,3.50
2022-08-17T23:25:46.394Z,3.30
2022-08-17T23:30:50.680Z,3.57
2022-08-17T23:35:54.564Z,4.50
2022-08-17T23:41:02.856Z,3.57
2022-08-17T23:46:07.434Z,3.80
2022-08-17T23:51:15.599Z,3.77
2022-08-17T23:56:23.937Z,3.20
